Chalkyitsik, Alaska
Current Conditions -  °F | °C
As of 3:36 AM on Thursday 23 Oct 2014 (Local Time) from PFYU Reporting Station
Clear Clear  
Wind Chill:   Ceiling: Unl
Heat Index: 12°   Visibility: 10mi
Dew Point:   Wind: 6mph
Humidity: 79%   Direction: 20°NNE
Pressure: 29.84"   Gusts: NA
Location:  66.65°N, 143.72°W
Report Text: PFYU 231136Z 02005KT 10SM CLR M11/M14 A2984 RMK AO1
Loading
Personal Weather Stations






























Interactive Weather Map
Tropical Storm Tracking
New forecast layout! Learn more

10-Day Weather Forecast

Advertisements
Track Severe Weather on mobile